AAL1536 KDSM-KORD
Flight info
| Callsign | AAL1536 |
|---|---|
| Flight time | 0h 57m |
| Altitude | 39000 |
| Route | MYRRS FYTTE7 |
| Aircraft | A319/M-SDE3FGHIRWY/LB1 |
Departure
| Time | 2026-04-24 00:44 |
|---|---|
| Airport | Des Moines International Airport (KDSM) |
Arrival
| Time | 2026-04-24 01:42 |
|---|---|
| Airport | Chicago O'Hare International Airport (KORD) |
| Time | Latitude | Longitude | Altitude | Speed | Heading |
|---|---|---|---|---|---|
| 2026-04-24 00:26 | 41.53322 | -93.65063 | 926 ft | 0 kts | 76° |
| 2026-04-24 00:37 | 41.53320 | -93.65074 | 930 ft | 2 kts | 76° |
| 2026-04-24 00:37 | 41.53316 | -93.65095 | 929 ft | 2 kts | 75° |
| 2026-04-24 00:37 | 41.53312 | -93.65116 | 918 ft | 2 kts | 71° |
| 2026-04-24 00:38 | 41.53305 | -93.65136 | 923 ft | 2 kts | 33° |
| 2026-04-24 00:38 | 41.53295 | -93.65142 | 921 ft | 1 kts | 2° |
| 2026-04-24 00:38 | 41.53294 | -93.65142 | 920 ft | 0 kts | 2° |
| 2026-04-24 00:41 | 41.53336 | -93.65143 | 922 ft | 11 kts | 357° |
| 2026-04-24 00:42 | 41.53410 | -93.65151 | 923 ft | 11 kts | 359° |
| 2026-04-24 00:42 | 41.53498 | -93.65154 | 925 ft | 14 kts | 335° |
| 2026-04-24 00:42 | 41.53593 | -93.65175 | 925 ft | 16 kts | 36° |
| 2026-04-24 00:42 | 41.53661 | -93.65054 | 928 ft | 16 kts | 53° |
| 2026-04-24 00:43 | 41.53751 | -93.65040 | 929 ft | 16 kts | 325° |
| 2026-04-24 00:43 | 41.53767 | -93.65117 | 926 ft | 1 kts | 235° |
| 2026-04-24 00:43 | 41.53766 | -93.65119 | 928 ft | 0 kts | 235° |
| 2026-04-24 00:43 | 41.53765 | -93.65120 | 928 ft | 1 kts | 235° |
| 2026-04-24 00:44 | 41.53730 | -93.65186 | 925 ft | 33 kts | 233° |
| 2026-04-24 00:44 | 41.53424 | -93.65739 | 915 ft | 111 kts | 233° |
| 2026-04-24 00:44 | 41.52853 | -93.66782 | 985 ft | 158 kts | 229° |
| 2026-04-24 00:44 | 41.52252 | -93.67923 | 1740 ft | 149 kts | 230° |
| 2026-04-24 00:45 | 41.51640 | -93.69044 | 2440 ft | 151 kts | 232° |
| 2026-04-24 00:45 | 41.50980 | -93.70204 | 2966 ft | 167 kts | 231° |
| 2026-04-24 00:45 | 41.50230 | -93.71511 | 3356 ft | 189 kts | 231° |
| 2026-04-24 00:45 | 41.49391 | -93.72979 | 3812 ft | 209 kts | 231° |
| 2026-04-24 00:46 | 41.48244 | -93.74294 | 4370 ft | 232 kts | 206° |
| 2026-04-24 00:46 | 41.46607 | -93.74645 | 5226 ft | 247 kts | 183° |
| 2026-04-24 00:46 | 41.44871 | -93.74504 | 6269 ft | 251 kts | 181° |
| 2026-04-24 00:46 | 41.43119 | -93.74309 | 7249 ft | 255 kts | 180° |
| 2026-04-24 00:47 | 41.41372 | -93.73665 | 8199 ft | 272 kts | 158° |
| 2026-04-24 00:47 | 41.39930 | -93.71907 | 9154 ft | 295 kts | 129° |
| 2026-04-24 00:47 | 41.39292 | -93.69221 | 10031 ft | 319 kts | 97° |
| 2026-04-24 00:47 | 41.39737 | -93.66269 | 10832 ft | 340 kts | 69° |
| 2026-04-24 00:48 | 41.41034 | -93.63491 | 11164 ft | 368 kts | 52° |
| 2026-04-24 00:48 | 41.42812 | -93.60943 | 11779 ft | 381 kts | 44° |
| 2026-04-24 00:48 | 41.44786 | -93.58552 | 12562 ft | 387 kts | 41° |
| 2026-04-24 00:48 | 41.46827 | -93.56160 | 13372 ft | 393 kts | 42° |
| 2026-04-24 00:49 | 41.48864 | -93.53683 | 14083 ft | 398 kts | 44° |
| 2026-04-24 00:49 | 41.50862 | -93.51104 | 14834 ft | 402 kts | 46° |
| 2026-04-24 00:49 | 41.52826 | -93.48433 | 15587 ft | 405 kts | 47° |
| 2026-04-24 00:49 | 41.54774 | -93.45694 | 16334 ft | 409 kts | 48° |
| 2026-04-24 00:50 | 41.56727 | -93.42910 | 17065 ft | 413 kts | 49° |
| 2026-04-24 00:50 | 41.58702 | -93.40091 | 17794 ft | 417 kts | 49° |
| 2026-04-24 00:50 | 41.60699 | -93.37256 | 18435 ft | 421 kts | 48° |
| 2026-04-24 00:50 | 41.62725 | -93.34397 | 19072 ft | 425 kts | 48° |
| 2026-04-24 00:51 | 41.64745 | -93.31562 | 19698 ft | 429 kts | 48° |
| 2026-04-24 00:51 | 41.66815 | -93.28664 | 20328 ft | 432 kts | 47° |
| 2026-04-24 00:51 | 41.68904 | -93.25739 | 20961 ft | 436 kts | 47° |
| 2026-04-24 00:51 | 41.71009 | -93.22786 | 21591 ft | 440 kts | 47° |
| 2026-04-24 00:52 | 41.73126 | -93.19809 | 22221 ft | 443 kts | 47° |
| 2026-04-24 00:52 | 41.75261 | -93.16804 | 22825 ft | 448 kts | 47° |
| 2026-04-24 00:52 | 41.77418 | -93.13765 | 23369 ft | 451 kts | 47° |
| 2026-04-24 00:52 | 41.79593 | -93.10696 | 23862 ft | 455 kts | 47° |
| 2026-04-24 00:53 | 41.81773 | -93.07612 | 24354 ft | 458 kts | 47° |
| 2026-04-24 00:53 | 41.83974 | -93.04498 | 24814 ft | 461 kts | 48° |
| 2026-04-24 00:53 | 41.86184 | -93.01367 | 25288 ft | 463 kts | 48° |
| 2026-04-24 00:53 | 41.88410 | -92.98208 | 25758 ft | 466 kts | 48° |
| 2026-04-24 00:54 | 41.90645 | -92.95029 | 26218 ft | 469 kts | 48° |
| 2026-04-24 00:54 | 41.92864 | -92.91876 | 26672 ft | 472 kts | 48° |
| 2026-04-24 00:54 | 41.95125 | -92.88660 | 27145 ft | 475 kts | 48° |
| 2026-04-24 00:54 | 41.97399 | -92.85420 | 27588 ft | 478 kts | 48° |
| 2026-04-24 00:55 | 41.99683 | -92.82161 | 28025 ft | 481 kts | 48° |
| 2026-04-24 00:55 | 42.01987 | -92.78872 | 28472 ft | 484 kts | 48° |
| 2026-04-24 00:55 | 42.04300 | -92.75570 | 28901 ft | 487 kts | 48° |
| 2026-04-24 00:55 | 42.06628 | -92.72246 | 29328 ft | 489 kts | 48° |
| 2026-04-24 00:56 | 42.08964 | -92.68903 | 29731 ft | 492 kts | 48° |
| 2026-04-24 00:56 | 42.11315 | -92.65532 | 30065 ft | 494 kts | 48° |
| 2026-04-24 00:56 | 42.13672 | -92.62148 | 30432 ft | 496 kts | 48° |
| 2026-04-24 00:56 | 42.16022 | -92.58775 | 30729 ft | 495 kts | 48° |
| 2026-04-24 00:57 | 42.18374 | -92.55394 | 30912 ft | 497 kts | 48° |
| 2026-04-24 00:57 | 42.20745 | -92.51973 | 31207 ft | 500 kts | 48° |
| 2026-04-24 00:57 | 42.24702 | -92.46262 | 31926 ft | 500 kts | 48° |
| 2026-04-24 00:58 | 42.27073 | -92.42840 | 32411 ft | 498 kts | 48° |
| 2026-04-24 00:58 | 42.29435 | -92.39422 | 32889 ft | 497 kts | 48° |
| 2026-04-24 00:58 | 42.31794 | -92.36005 | 33363 ft | 496 kts | 48° |
| 2026-04-24 00:59 | 42.36465 | -92.29224 | 32781 ft | 492 kts | 48° |
| 2026-04-24 00:59 | 42.38801 | -92.25835 | 32607 ft | 491 kts | 49° |
| 2026-04-24 00:59 | 42.41130 | -92.22452 | 32647 ft | 492 kts | 49° |
| 2026-04-24 01:00 | 42.45789 | -92.15670 | 32663 ft | 492 kts | 49° |
| 2026-04-24 01:00 | 42.49897 | -92.08337 | 32674 ft | 487 kts | 65° |
| 2026-04-24 01:01 | 42.52107 | -91.99785 | 32673 ft | 478 kts | 84° |
| 2026-04-24 01:01 | 42.52487 | -91.90877 | 32650 ft | 472 kts | 94° |
| 2026-04-24 01:02 | 42.52548 | -91.81995 | 32669 ft | 476 kts | 93° |
| 2026-04-24 01:02 | 42.52604 | -91.73014 | 32670 ft | 476 kts | 93° |
| 2026-04-24 01:03 | 42.52647 | -91.64042 | 32678 ft | 476 kts | 93° |
| 2026-04-24 01:03 | 42.52679 | -91.55059 | 32680 ft | 476 kts | 93° |
| 2026-04-24 01:04 | 42.52695 | -91.46050 | 32685 ft | 480 kts | 93° |
| 2026-04-24 01:04 | 42.52715 | -91.36977 | 32687 ft | 482 kts | 93° |
| 2026-04-24 01:05 | 42.52732 | -91.27899 | 32680 ft | 482 kts | 93° |
| 2026-04-24 01:05 | 42.52733 | -91.18810 | 32683 ft | 482 kts | 93° |
| 2026-04-24 01:06 | 42.52718 | -91.09725 | 32684 ft | 483 kts | 92° |
| 2026-04-24 01:06 | 42.52701 | -91.00612 | 32692 ft | 483 kts | 93° |
| 2026-04-24 01:07 | 42.52678 | -90.91570 | 32695 ft | 483 kts | 93° |
| 2026-04-24 01:07 | 42.52650 | -90.82452 | 32693 ft | 483 kts | 93° |
| 2026-04-24 01:08 | 42.52602 | -90.73338 | 32692 ft | 483 kts | 92° |
| 2026-04-24 01:08 | 42.52545 | -90.64223 | 32693 ft | 484 kts | 92° |
| 2026-04-24 01:09 | 42.52487 | -90.55092 | 32698 ft | 484 kts | 92° |
| 2026-04-24 01:09 | 42.52422 | -90.45968 | 32702 ft | 484 kts | 92° |
| 2026-04-24 01:10 | 42.52347 | -90.36851 | 32695 ft | 484 kts | 92° |
| 2026-04-24 01:10 | 42.52265 | -90.27715 | 32707 ft | 484 kts | 92° |
| 2026-04-24 01:11 | 42.52205 | -90.18628 | 32408 ft | 482 kts | 92° |
| 2026-04-24 01:11 | 42.52177 | -90.14088 | 31557 ft | 483 kts | 92° |
| 2026-04-24 01:11 | 42.52145 | -90.09539 | 30869 ft | 481 kts | 92° |
| 2026-04-24 01:11 | 42.52108 | -90.05081 | 30300 ft | 476 kts | 92° |
| 2026-04-24 01:12 | 42.52070 | -90.00585 | 30058 ft | 464 kts | 92° |
| 2026-04-24 01:12 | 42.52036 | -89.96289 | 29732 ft | 455 kts | 92° |
| 2026-04-24 01:12 | 42.51999 | -89.92081 | 29237 ft | 450 kts | 92° |
| 2026-04-24 01:12 | 42.51956 | -89.87863 | 28706 ft | 445 kts | 92° |
| 2026-04-24 01:13 | 42.51913 | -89.83684 | 28170 ft | 441 kts | 92° |
| 2026-04-24 01:13 | 42.51867 | -89.79538 | 27646 ft | 437 kts | 93° |
| 2026-04-24 01:13 | 42.51588 | -89.75463 | 27139 ft | 431 kts | 102° |
| 2026-04-24 01:13 | 42.51105 | -89.71473 | 26639 ft | 428 kts | 102° |
| 2026-04-24 01:14 | 42.50618 | -89.67497 | 26152 ft | 425 kts | 102° |
| 2026-04-24 01:14 | 42.50134 | -89.63564 | 25678 ft | 422 kts | 102° |
| 2026-04-24 01:14 | 42.49641 | -89.59596 | 24714 ft | 432 kts | 102° |
| 2026-04-24 01:14 | 42.49139 | -89.55562 | 23999 ft | 435 kts | 102° |
| 2026-04-24 01:15 | 42.48650 | -89.51586 | 23442 ft | 433 kts | 102° |
| 2026-04-24 01:15 | 42.48156 | -89.47526 | 22849 ft | 430 kts | 102° |
| 2026-04-24 01:15 | 42.47678 | -89.43595 | 22315 ft | 426 kts | 102° |
| 2026-04-24 01:15 | 42.47195 | -89.39658 | 21820 ft | 422 kts | 102° |
| 2026-04-24 01:16 | 42.46720 | -89.35784 | 21653 ft | 411 kts | 102° |
| 2026-04-24 01:16 | 42.46260 | -89.32018 | 21424 ft | 401 kts | 102° |
| 2026-04-24 01:16 | 42.45805 | -89.28313 | 21042 ft | 396 kts | 102° |
| 2026-04-24 01:16 | 42.45352 | -89.24644 | 20624 ft | 393 kts | 102° |
| 2026-04-24 01:17 | 42.44900 | -89.21019 | 20198 ft | 389 kts | 102° |
| 2026-04-24 01:17 | 42.44447 | -89.17420 | 19774 ft | 386 kts | 102° |
| 2026-04-24 01:17 | 42.44000 | -89.13859 | 19355 ft | 382 kts | 102° |
| 2026-04-24 01:17 | 42.43558 | -89.10321 | 18934 ft | 379 kts | 102° |
| 2026-04-24 01:18 | 42.43113 | -89.06820 | 18527 ft | 376 kts | 103° |
| 2026-04-24 01:18 | 42.42674 | -89.03385 | 18118 ft | 374 kts | 103° |
| 2026-04-24 01:18 | 42.42233 | -88.99887 | 17667 ft | 371 kts | 103° |
| 2026-04-24 01:18 | 42.41808 | -88.96504 | 17223 ft | 368 kts | 103° |
| 2026-04-24 01:19 | 42.41377 | -88.93103 | 16786 ft | 366 kts | 103° |
| 2026-04-24 01:19 | 42.40950 | -88.89719 | 16354 ft | 363 kts | 103° |
| 2026-04-24 01:19 | 42.40524 | -88.86356 | 15921 ft | 361 kts | 103° |
| 2026-04-24 01:19 | 42.40099 | -88.83021 | 15491 ft | 359 kts | 102° |
| 2026-04-24 01:20 | 42.39673 | -88.79703 | 15056 ft | 357 kts | 102° |
| 2026-04-24 01:20 | 42.39249 | -88.76397 | 14652 ft | 356 kts | 102° |
| 2026-04-24 01:20 | 42.38826 | -88.73110 | 14271 ft | 353 kts | 102° |
| 2026-04-24 01:20 | 42.38408 | -88.69884 | 14146 ft | 343 kts | 102° |
| 2026-04-24 01:21 | 42.38005 | -88.66751 | 14027 ft | 333 kts | 102° |
| 2026-04-24 01:21 | 42.37606 | -88.63686 | 13783 ft | 329 kts | 102° |
| 2026-04-24 01:21 | 42.37208 | -88.60650 | 13471 ft | 327 kts | 102° |
| 2026-04-24 01:21 | 42.36812 | -88.57632 | 13125 ft | 326 kts | 102° |
| 2026-04-24 01:22 | 42.36417 | -88.54622 | 12768 ft | 324 kts | 102° |
| 2026-04-24 01:22 | 42.36027 | -88.51632 | 12429 ft | 322 kts | 102° |
| 2026-04-24 01:22 | 42.35636 | -88.48652 | 12097 ft | 320 kts | 102° |
| 2026-04-24 01:22 | 42.35247 | -88.45728 | 11755 ft | 319 kts | 103° |
| 2026-04-24 01:23 | 42.34858 | -88.42783 | 11420 ft | 317 kts | 102° |
| 2026-04-24 01:23 | 42.34306 | -88.39925 | 11074 ft | 312 kts | 115° |
| 2026-04-24 01:23 | 42.33293 | -88.37379 | 10776 ft | 304 kts | 129° |
| 2026-04-24 01:23 | 42.32049 | -88.35094 | 10719 ft | 302 kts | 130° |
| 2026-04-24 01:24 | 42.30815 | -88.32795 | 10660 ft | 302 kts | 129° |
| 2026-04-24 01:24 | 42.29573 | -88.30514 | 10603 ft | 301 kts | 131° |
| 2026-04-24 01:24 | 42.28261 | -88.28316 | 10476 ft | 300 kts | 133° |
| 2026-04-24 01:24 | 42.26916 | -88.26177 | 10233 ft | 298 kts | 134° |
| 2026-04-24 01:25 | 42.25562 | -88.24067 | 10001 ft | 296 kts | 135° |
| 2026-04-24 01:25 | 42.24214 | -88.21974 | 9856 ft | 295 kts | 135° |
| 2026-04-24 01:25 | 42.22872 | -88.19881 | 9740 ft | 295 kts | 135° |
| 2026-04-24 01:25 | 42.21537 | -88.17783 | 9618 ft | 294 kts | 134° |
| 2026-04-24 01:26 | 42.20148 | -88.15781 | 9464 ft | 290 kts | 143° |
| 2026-04-24 01:26 | 42.18493 | -88.14273 | 9354 ft | 284 kts | 157° |
| 2026-04-24 01:26 | 42.16673 | -88.13275 | 9231 ft | 281 kts | 163° |
| 2026-04-24 01:26 | 42.14843 | -88.12342 | 9102 ft | 281 kts | 163° |
| 2026-04-24 01:27 | 42.13011 | -88.11398 | 9276 ft | 284 kts | 163° |
| 2026-04-24 01:27 | 42.11160 | -88.10446 | 10243 ft | 287 kts | 163° |
| 2026-04-24 01:27 | 42.09268 | -88.09479 | 10754 ft | 293 kts | 162° |
| 2026-04-24 01:27 | 42.07401 | -88.08393 | 10941 ft | 294 kts | 151° |
| 2026-04-24 01:28 | 42.05852 | -88.06566 | 11006 ft | 299 kts | 135° |
| 2026-04-24 01:28 | 42.04485 | -88.04501 | 11005 ft | 299 kts | 134° |
| 2026-04-24 01:28 | 42.03109 | -88.02403 | 11005 ft | 299 kts | 134° |
| 2026-04-24 01:28 | 42.01740 | -88.00318 | 10787 ft | 296 kts | 135° |
| 2026-04-24 01:29 | 42.00382 | -87.98247 | 10438 ft | 295 kts | 135° |
| 2026-04-24 01:29 | 41.99028 | -87.96186 | 10086 ft | 293 kts | 135° |
| 2026-04-24 01:29 | 41.97678 | -87.94143 | 9722 ft | 291 kts | 135° |
| 2026-04-24 01:29 | 41.96336 | -87.92122 | 9344 ft | 289 kts | 136° |
| 2026-04-24 01:30 | 41.95008 | -87.90118 | 8971 ft | 286 kts | 136° |
| 2026-04-24 01:30 | 41.93690 | -87.88135 | 8608 ft | 283 kts | 136° |
| 2026-04-24 01:30 | 41.92383 | -87.86167 | 8246 ft | 282 kts | 136° |
| 2026-04-24 01:30 | 41.91178 | -87.84088 | 7866 ft | 283 kts | 129° |
| 2026-04-24 01:31 | 41.90169 | -87.81817 | 7507 ft | 284 kts | 122° |
| 2026-04-24 01:31 | 41.89379 | -87.79381 | 7154 ft | 285 kts | 115° |
| 2026-04-24 01:31 | 41.88823 | -87.76821 | 6798 ft | 287 kts | 108° |
| 2026-04-24 01:31 | 41.88500 | -87.74174 | 6425 ft | 288 kts | 101° |
| 2026-04-24 01:32 | 41.88420 | -87.71477 | 6046 ft | 290 kts | 95° |
| 2026-04-24 01:32 | 41.88420 | -87.68784 | 5656 ft | 287 kts | 95° |
| 2026-04-24 01:32 | 41.88416 | -87.66112 | 5282 ft | 285 kts | 96° |
| 2026-04-24 01:32 | 41.88416 | -87.63464 | 5029 ft | 283 kts | 96° |
| 2026-04-24 01:33 | 41.88409 | -87.60821 | 5014 ft | 283 kts | 96° |
| 2026-04-24 01:33 | 41.88398 | -87.58178 | 5017 ft | 283 kts | 96° |
| 2026-04-24 01:33 | 41.88393 | -87.55541 | 5018 ft | 283 kts | 96° |
| 2026-04-24 01:33 | 41.88392 | -87.52904 | 5021 ft | 282 kts | 96° |
| 2026-04-24 01:34 | 41.88382 | -87.50265 | 5022 ft | 283 kts | 96° |
| 2026-04-24 01:34 | 41.88377 | -87.47643 | 5017 ft | 275 kts | 95° |
| 2026-04-24 01:34 | 41.88757 | -87.45195 | 5021 ft | 267 kts | 68° |
| 2026-04-24 01:34 | 41.89909 | -87.43350 | 5021 ft | 261 kts | 36° |
| 2026-04-24 01:35 | 41.91586 | -87.42488 | 5027 ft | 259 kts | 4° |
| 2026-04-24 01:35 | 41.93374 | -87.42484 | 5023 ft | 255 kts | 343° |
| 2026-04-24 01:35 | 41.94944 | -87.43443 | 5029 ft | 244 kts | 314° |
| 2026-04-24 01:35 | 41.96057 | -87.45192 | 5034 ft | 254 kts | 290° |
| 2026-04-24 01:36 | 41.96531 | -87.47324 | 5018 ft | 226 kts | 266° |
| 2026-04-24 01:36 | 41.96550 | -87.49374 | 5022 ft | 217 kts | 262° |
| 2026-04-24 01:36 | 41.96554 | -87.51404 | 5024 ft | 218 kts | 263° |
| 2026-04-24 01:36 | 41.96559 | -87.53440 | 5028 ft | 217 kts | 263° |
| 2026-04-24 01:37 | 41.96563 | -87.55473 | 5025 ft | 217 kts | 263° |
| 2026-04-24 01:37 | 41.96566 | -87.57474 | 4997 ft | 218 kts | 263° |
| 2026-04-24 01:37 | 41.96570 | -87.59504 | 4805 ft | 217 kts | 263° |
| 2026-04-24 01:37 | 41.96573 | -87.61528 | 4549 ft | 216 kts | 262° |
| 2026-04-24 01:38 | 41.96575 | -87.63549 | 4266 ft | 216 kts | 263° |
| 2026-04-24 01:38 | 41.96578 | -87.65566 | 3977 ft | 215 kts | 263° |
| 2026-04-24 01:38 | 41.96579 | -87.67582 | 3706 ft | 215 kts | 263° |
| 2026-04-24 01:38 | 41.96582 | -87.69558 | 3414 ft | 208 kts | 262° |
| 2026-04-24 01:39 | 41.96584 | -87.71462 | 3157 ft | 200 kts | 261° |
| 2026-04-24 01:39 | 41.96585 | -87.73299 | 2914 ft | 193 kts | 261° |
| 2026-04-24 01:39 | 41.96585 | -87.75080 | 2668 ft | 188 kts | 261° |
| 2026-04-24 01:39 | 41.96585 | -87.76821 | 2424 ft | 184 kts | 260° |
| 2026-04-24 01:40 | 41.96584 | -87.78532 | 2180 ft | 182 kts | 261° |
| 2026-04-24 01:40 | 41.96584 | -87.80217 | 1951 ft | 177 kts | 261° |
| 2026-04-24 01:40 | 41.96587 | -87.81769 | 1731 ft | 155 kts | 260° |
| 2026-04-24 01:40 | 41.96588 | -87.83131 | 1540 ft | 138 kts | 259° |
| 2026-04-24 01:41 | 41.96585 | -87.84400 | 1365 ft | 134 kts | 263° |
| 2026-04-24 01:41 | 41.96584 | -87.85647 | 1210 ft | 132 kts | 266° |
| 2026-04-24 01:41 | 41.96598 | -87.86872 | 1032 ft | 132 kts | 263° |
| 2026-04-24 01:41 | 41.96585 | -87.88099 | 840 ft | 131 kts | 262° |
| 2026-04-24 01:42 | 41.96583 | -87.89318 | 696 ft | 130 kts | 264° |
| 2026-04-24 01:42 | 41.96570 | -87.90419 | 667 ft | 97 kts | 270° |
| 2026-04-24 01:42 | 41.96572 | -87.91092 | 670 ft | 48 kts | 271° |
| 2026-04-24 01:42 | 41.96620 | -87.91380 | 668 ft | 27 kts | 292° |
| 2026-04-24 01:43 | 41.96731 | -87.91472 | 669 ft | 10 kts | 50° |
| 2026-04-24 01:43 | 41.96737 | -87.91391 | 669 ft | 10 kts | 92° |
| 2026-04-24 01:43 | 41.96735 | -87.91282 | 669 ft | 13 kts | 91° |
| 2026-04-24 01:43 | 41.96735 | -87.91122 | 669 ft | 23 kts | 89° |
| 2026-04-24 01:44 | 41.96737 | -87.90885 | 669 ft | 26 kts | 89° |
| 2026-04-24 01:44 | 41.96739 | -87.90631 | 668 ft | 28 kts | 89° |
| 2026-04-24 01:44 | 41.96740 | -87.90367 | 669 ft | 29 kts | 90° |
| 2026-04-24 01:44 | 41.96739 | -87.90104 | 669 ft | 27 kts | 90° |
| 2026-04-24 01:45 | 41.96739 | -87.89936 | 669 ft | 27 kts | 90° |
| 2026-04-24 01:45 | 41.96739 | -87.89675 | 669 ft | 29 kts | 90° |
| 2026-04-24 01:45 | 41.96768 | -87.89440 | 668 ft | 21 kts | 29° |
| 2026-04-24 01:45 | 41.96858 | -87.89433 | 670 ft | 12 kts | 356° |
| 2026-04-24 01:46 | 41.96955 | -87.89436 | 670 ft | 16 kts | 360° |
| 2026-04-24 01:46 | 41.97064 | -87.89464 | 669 ft | 17 kts | 305° |
| 2026-04-24 01:46 | 41.97129 | -87.89604 | 669 ft | 18 kts | 314° |
| 2026-04-24 01:46 | 41.97232 | -87.89707 | 668 ft | 19 kts | 330° |
| 2026-04-24 01:47 | 41.97293 | -87.89856 | 669 ft | 19 kts | 305° |